Anchorage/Merrill Field, Alaska
Current Conditions -  °F | °C
As of 6:53 AM on Monday 26 Jan 2015 (Local Time) from PAMR Reporting Station
Light Snow Light Snow  
Wind Chill: -11°   Ceiling: 1500
Heat Index: -1°   Visibility: 4mi
Dew Point: -5°   Wind: 5mph
Humidity: 83%   Direction: 10°N
Pressure: 30.04"   Gusts: NA
Location:  61.21°N, 149.85°W
Report Text: PAMR 261553Z 01004KT 4SM -SN BR OVC015 M18/M21 A3004 RMK AO2 SLP176 P0000 T11831206 $
Loading
Personal Weather Stations






























Interactive Weather Map New forecast layout! Learn more

10-Day Weather Forecast

Advertisements
Track Severe Weather on mobile